AirNav  
 
Fuel
  

KCTO Calverton Naval Weapons Industrial Reserve Airport
Calverton, New York, USA

GOING TO CALVERTON?

Reserve a HOTEL

FAA INFORMATION EFFECTIVE 15 MAY 2003

Location

FAA Identifier: CTO
Lat/Long: 40-54-54.354N / 072-47-30.863W
40-54.90590N / 072-47.51438W
40.9150983 / -72.7919064
(estimated)
Elevation: 75 ft. / 22.9 m (surveyed)
Variation: 14W (1985)
From city: 3 miles W of CALVERTON, NY

Airport Operations

Airport use: Private use. Permission required prior to landing
Sectional chart: NEW YORK BUY IT NOW
Control tower: no
ARTCC: NEW YORK CENTER
FSS: NEW YORK FLIGHT SERVICE STATION [1-800-WX-BRIEF]
NOTAMs facility: ISP (NOTAM-D service available)
Attendance: MON-FRI 0800-1630
Wind indicator: yes
Segmented circle: no
Lights: FOR RTG BCN AND RWY LGTS AFTER SS, CALL 516-369-7028.
Beacon: white-green (lighted land airport)

Airport Communications

BUFFALO APPROACH: 118.0
BUFFALO DEPARTURE: 118.0
WX ASOS at HWV (7 nm SW): 119.625 (631-399-7095)
WX ASOS at FOK (8 nm SE): 119.925 (631-288-0588)
WX ASOS at ISP (16 nm SW): PHONE 631-471-0690

Nearby radio navigation aids

VOR radial/distance  VOR name  Freq  Var
CCC at fieldCALVERTON VOR/DME117.2013W
BDRr146/21.1BRIDGEPORT VOR/DME108.8012W
HVNr182/21.3NEW HAVEN VOR/DME109.8013W
HTOr282/21.5HAMPTON VORTAC113.6013W
MADr204/24.3MADISON VOR/DME110.4013W
DPKr084/24.4DEER PARK VOR/DME117.7012W

 
NDB name  Hdg/Dist  Freq  Var  ID
BABYLON076/30.627514WBBN -... -... -.
MERIDEN191/35.823814WMMK -- -- -.-

Airport Services

Airframe service: NONE
Powerplant service: NONE

Runway Information

Runway 14/32

Dimensions: 10001 x 200 ft. / 3048 x 61 m
Surface: asphalt/concrete
Runway edge lights: high intensity
RUNWAY 14  RUNWAY 32
Latitude: 40-55.42975N40-54.34612N
Longitude: 072-47.64125W072-46.00630W
Elevation: 75.0 ft.52.0 ft.
Traffic pattern: leftleft
Runway heading: 145 magnetic, 131 true325 magnetic, 311 true
Touchdown point: yes, no lightsyes, no lights

Runway 5/23

Dimensions: 7001 x 200 ft. / 2134 x 61 m
Surface: asphalt/concrete
Runway edge lights: high intensity
RUNWAY 5  RUNWAY 23
Latitude: 40-54.46248N40-55.40345N
Longitude: 072-48.93933W072-48.06125W
Elevation: 65.0 ft.75.0 ft.
Traffic pattern: leftleft
Runway heading: 049 magnetic, 035 true229 magnetic, 215 true
Touchdown point: yes, no lightsyes, no lights

Airport Ownership and Management from official FAA records

Ownership: U.S. Navy
Owner: UNITED STATES NAVY
Manager: W. A. RASMUSSEN
SWAN POND RD
CALVERTON, NY 11933
Phone 516-369-7183

Additional Remarks

RSTD OFFL BUS ONLY DPRO; PPR C516-953-7028/7029.
NO SVCS AVBL DURG CLSD PERIODS.
(ARPT STATUS) ARPT CLSD PERMLY.
 
Loc | Ops | Rwys | Biz | Links
Com | Nav | Svcs | Stats | Notes
 
Area around KCTO (Calverton Naval Weapons Industrial Reserve Airport)
 
Aerial photo of KCTO (Calverton Naval Weapons Industrial Reserve Airport)
 
Sunrise and sunset
Times for 19-May-2003
 Local
(UTC-4)
 Zulu
(UTC)
Morning civil twilight04:5908:59
Sunrise05:3109:31
Sunset20:0400:04
Evening civil twilight20:3600:36
 
METAR
KHWV 191856Z AUTO VRB05KT 10SM CLR 24/01 A3033 RMK AO2 SLP269 T02390006
KFOK 191853Z 13007KT 10SM CLR 24/03 A3033 RMK AO2 SLP269 T02390028 $
KISP 191856Z 14006KT 10SM CLR 23/03 A3032 RMK AO2 SLP279 T02330033

Businesses, Services and Facilities On or Near Calverton Naval Weapons Industrial Reserve Airport

Business NameContactServicesComments
New York Calverton Corporate Airpark [www] [email] airport manager, fuel, parking, hangars, maintenance, avionics, ...   view  add
Add a business

Other Pages about Calverton Naval Weapons Industrial Reserve Airport

www.calvertonairpark.com/...
www.air.gen.ny.us/...
Add a link
 
Copyright © AirNav, LLC. All rights reserved. Privacy Policy  Contact